Time;durP1;ratioP1;P1;durP2;ratioP2;P2;SDS_P1;SDS_P2;PMS_P1;PMS_P2;Temp;Humidity;BMP_temperature;BMP_pressure;BME280_temperature;BME280_humidity;BME280_pressure;Samples;Min_cycle;Max_cycle;Signal;HPM_P1;HPM_P2
2021/05/08 00:02:13;;;;;;;6.38;5.22;;;0.80;99.90;;;;;;4989763;28;20955;-78
2021/05/08 00:04:41;;;;;;;4.85;4.43;;;0.80;99.90;;;;;;4991648;28;20057;-79
2021/05/08 00:07:08;;;;;;;4.75;4.25;;;0.90;99.90;;;;;;4991355;28;20042;-79
2021/05/08 00:09:36;;;;;;;4.90;4.38;;;0.90;99.90;;;;;;4992416;28;20058;-78
2021/05/08 00:12:08;;;;;;;4.82;4.43;;;1.00;99.90;;;;;;4991685;28;20042;-79
2021/05/08 00:14:36;;;;;;;3.75;3.45;;;1.00;99.90;;;;;;4990015;28;20487;-78
2021/05/08 00:17:06;;;;;;;6.35;4.97;;;1.00;99.90;;;;;;4991258;28;20069;-79
2021/05/08 00:19:34;;;;;;;7.43;5.07;;;0.90;99.90;;;;;;4986335;28;20042;-78
2021/05/08 00:22:01;;;;;;;6.22;5.68;;;1.00;99.90;;;;;;5001860;28;20045;-79
2021/05/08 00:24:29;;;;;;;4.13;3.72;;;1.00;99.90;;;;;;5010767;28;20046;-78
2021/05/08 00:26:56;;;;;;;4.75;3.90;;;0.90;99.90;;;;;;5011171;28;20395;-78
2021/05/08 00:29:23;;;;;;;4.55;4.07;;;1.00;99.90;;;;;;5010887;28;20065;-78
2021/05/08 00:31:56;;;;;;;4.45;4.05;;;1.00;99.90;;;;;;4989577;28;20415;-79
2021/05/08 00:34:23;;;;;;;4.25;3.58;;;1.00;99.90;;;;;;4992067;28;20058;-79
2021/05/08 00:36:51;;;;;;;4.40;3.88;;;1.00;99.90;;;;;;4989103;28;20055;-78
2021/05/08 00:39:19;;;;;;;5.20;4.70;;;1.00;99.90;;;;;;4989692;28;20050;-78
2021/05/08 00:41:47;;;;;;;5.68;5.07;;;1.00;99.90;;;;;;4991870;28;20054;-78
2021/05/08 00:44:15;;;;;;;5.03;4.18;;;1.00;99.90;;;;;;4989309;28;20076;-79
2021/05/08 00:46:46;;;;;;;4.40;4.07;;;1.00;99.90;;;;;;4973828;28;20042;-78
2021/05/08 00:49:15;;;;;;;8.48;5.70;;;1.00;99.90;;;;;;4990306;28;20050;-78
2021/05/08 00:51:43;;;;;;;4.28;3.55;;;1.00;99.90;;;;;;4989012;28;20050;-78
2021/05/08 00:54:10;;;;;;;5.00;3.65;;;1.10;99.90;;;;;;4991428;28;20058;-78
2021/05/08 00:56:38;;;;;;;4.68;3.42;;;1.10;99.90;;;;;;4989639;28;20050;-78
2021/05/08 00:59:05;;;;;;;8.80;4.68;;;1.20;99.90;;;;;;4970424;28;20051;-78
2021/05/08 01:01:33;;;;;;;4.75;4.30;;;1.20;99.90;;;;;;4981855;28;20065;-79
2021/05/08 01:04:01;;;;;;;7.10;4.43;;;1.20;99.90;;;;;;4973156;28;20049;-79
2021/05/08 01:06:29;;;;;;;7.30;4.65;;;1.10;99.90;;;;;;4990806;28;20431;-78
2021/05/08 01:08:56;;;;;;;7.80;4.68;;;1.10;99.90;;;;;;4989887;28;20065;-78
2021/05/08 01:11:24;;;;;;;4.60;4.20;;;1.10;99.90;;;;;;4990608;28;20408;-78
2021/05/08 01:13:52;;;;;;;5.75;4.90;;;1.30;99.90;;;;;;4990089;28;20054;-78
2021/05/08 01:16:21;;;;;;;4.40;4.00;;;1.20;99.90;;;;;;4990472;28;20051;-79
2021/05/08 01:18:52;;;;;;;3.65;3.08;;;1.10;99.90;;;;;;4990448;28;20042;-79
2021/05/08 01:21:21;;;;;;;5.47;3.67;;;0.90;99.90;;;;;;4988752;28;20069;-79
2021/05/08 01:23:52;;;;;;;4.85;4.45;;;0.90;99.90;;;;;;4990787;28;20065;-79
2021/05/08 01:26:21;;;;;;;7.45;5.35;;;0.90;99.90;;;;;;4991488;28;20396;-79
2021/05/08 01:28:49;;;;;;;12.00;5.88;;;1.00;99.90;;;;;;4989154;28;20077;-79
2021/05/08 01:31:17;;;;;;;5.28;4.88;;;1.20;99.90;;;;;;4989925;28;20046;-78
2021/05/08 01:33:47;;;;;;;4.15;3.75;;;1.10;99.90;;;;;;4973817;28;20500;-79
2021/05/08 01:36:15;;;;;;;7.70;4.45;;;1.00;99.90;;;;;;4982038;28;20054;-79
2021/05/08 01:38:43;;;;;;;5.57;4.45;;;0.90;99.90;;;;;;4973299;28;20065;-79
2021/05/08 01:41:11;;;;;;;8.18;4.25;;;0.80;99.90;;;;;;4989764;28;20081;-79
2021/05/08 01:43:39;;;;;;;6.85;4.68;;;0.90;99.90;;;;;;4989141;28;20042;-79
2021/05/08 01:47:10;;;;;;;6.47;5.03;;;0.90;99.90;;;;;;4990422;28;20058;-79
2021/05/08 01:59:49;;;;;;;6.68;4.28;;;1.00;99.90;;;;;;4992009;28;20294;-79
2021/05/08 02:02:18;;;;;;;6.13;5.05;;;1.00;99.90;;;;;;4973630;28;20373;-79
2021/05/08 02:04:47;;;;;;;4.65;4.22;;;1.00;99.90;;;;;;4975576;28;20050;-78
2021/05/08 02:07:16;;;;;;;7.15;4.60;;;1.10;99.90;;;;;;4976755;28;20045;-79
2021/05/08 02:09:44;;;;;;;5.53;4.32;;;1.10;99.90;;;;;;4994873;28;20058;-78
2021/05/08 02:12:11;;;;;;;14.68;4.95;;;1.10;99.90;;;;;;4993891;28;20046;-79
2021/05/08 02:14:39;;;;;;;5.70;4.45;;;1.10;99.90;;;;;;4992494;28;20054;-79
2021/05/08 02:17:06;;;;;;;5.40;4.85;;;1.10;99.90;;;;;;4992687;28;20058;-79
2021/05/08 02:19:34;;;;;;;6.90;4.90;;;1.00;99.90;;;;;;5002149;28;20046;-79
2021/05/08 02:22:02;;;;;;;5.03;4.57;;;1.00;99.90;;;;;;5010635;28;20056;-79
2021/05/08 02:24:29;;;;;;;4.35;3.97;;;0.80;99.90;;;;;;5033006;28;20049;-79
2021/05/08 02:26:57;;;;;;;5.00;4.50;;;0.90;99.90;;;;;;5033129;28;20042;-78
2021/05/08 02:29:25;;;;;;;4.75;3.95;;;0.90;99.90;;;;;;5032343;28;20505;-79
2021/05/08 02:31:52;;;;;;;5.32;4.82;;;0.80;99.90;;;;;;5022654;28;20089;-78
2021/05/08 02:34:20;;;;;;;6.65;4.85;;;0.80;99.90;;;;;;5013471;28;20057;-79
2021/05/08 02:36:49;;;;;;;5.93;5.30;;;0.80;99.90;;;;;;4995072;28;20054;-79
2021/05/08 02:39:17;;;;;;;5.30;4.35;;;0.80;99.90;;;;;;4995269;28;20438;-78
2021/05/08 02:41:44;;;;;;;4.85;4.45;;;0.70;99.90;;;;;;5013471;28;20407;-79
2021/05/08 02:44:12;;;;;;;5.68;4.78;;;0.70;99.90;;;;;;4995228;28;20060;-79
2021/05/08 02:46:39;;;;;;;6.35;5.68;;;0.70;99.90;;;;;;4978360;28;20046;-79
2021/05/08 02:49:07;;;;;;;6.55;5.07;;;0.70;99.90;;;;;;4995496;28;20692;-79
2021/05/08 02:51:34;;;;;;;6.05;5.50;;;0.90;99.90;;;;;;4975303;28;20047;-79
2021/05/08 02:54:02;;;;;;;7.47;6.78;;;0.90;99.90;;;;;;4976251;28;20081;-79
2021/05/08 02:56:29;;;;;;;6.82;5.45;;;0.80;99.90;;;;;;4974953;28;20058;-79
2021/05/08 02:58:57;;;;;;;7.95;5.65;;;0.80;99.90;;;;;;4975787;28;20562;-79
2021/05/08 03:01:24;;;;;;;5.95;4.60;;;0.80;99.90;;;;;;4996712;28;20053;-79
2021/05/08 03:03:52;;;;;;;9.90;4.43;;;0.80;99.90;;;;;;4994952;28;20045;-79
2021/05/08 03:06:19;;;;;;;4.45;4.07;;;0.60;99.90;;;;;;4995241;28;20057;-79
2021/05/08 03:08:47;;;;;;;7.85;6.57;;;0.60;99.90;;;;;;4994907;28;20642;-79
2021/05/08 03:11:16;;;;;;;6.60;5.95;;;0.70;99.90;;;;;;4994619;28;20042;-79
2021/05/08 03:13:46;;;;;;;6.15;4.70;;;0.70;99.90;;;;;;4994652;28;20061;-79
2021/05/08 03:16:14;;;;;;;4.40;4.00;;;0.60;99.90;;;;;;4993266;28;20049;-79
2021/05/08 03:18:43;;;;;;;4.72;4.07;;;0.60;99.90;;;;;;4993818;28;25179;-79
2021/05/08 03:21:11;;;;;;;5.35;4.90;;;0.60;99.90;;;;;;5003335;28;20411;-79
2021/05/08 03:23:39;;;;;;;5.03;4.28;;;0.50;99.90;;;;;;5031991;28;20148;-79
2021/05/08 03:26:07;;;;;;;4.95;4.53;;;0.50;99.90;;;;;;5014725;28;20045;-79
2021/05/08 03:28:34;;;;;;;5.15;4.70;;;0.50;99.90;;;;;;5013897;28;20042;-79
2021/05/08 03:31:02;;;;;;;22.60;7.03;;;0.50;99.90;;;;;;5013687;28;20033;-79
2021/05/08 03:33:30;;;;;;;6.43;5.82;;;0.50;99.90;;;;;;4984405;28;20055;-79
2021/05/08 03:35:58;;;;;;;7.03;5.78;;;0.40;99.90;;;;;;4981585;28;20046;-79
2021/05/08 03:38:27;;;;;;;6.88;6.20;;;0.40;99.90;;;;;;4990078;28;20051;-79
2021/05/08 03:40:55;;;;;;;6.78;5.63;;;0.50;99.90;;;;;;4992175;28;20050;-79
2021/05/08 03:43:22;;;;;;;6.85;6.13;;;0.50;99.90;;;;;;4990725;28;20046;-78
2021/05/08 03:45:50;;;;;;;8.13;5.18;;;0.50;99.90;;;;;;4992164;28;20046;-78
2021/05/08 03:48:17;;;;;;;6.72;5.85;;;0.50;99.90;;;;;;4991388;28;20042;-79
2021/05/08 03:50:46;;;;;;;7.38;5.03;;;0.40;99.90;;;;;;4990675;28;20038;-79
2021/05/08 03:53:14;;;;;;;5.85;5.35;;;0.50;99.90;;;;;;4992644;28;20057;-79
2021/05/08 03:55:41;;;;;;;8.25;5.40;;;0.40;99.90;;;;;;4991422;28;20039;-79
2021/05/08 03:58:09;;;;;;;15.57;6.35;;;0.40;99.90;;;;;;4992436;28;20046;-79
2021/05/08 04:00:37;;;;;;;8.48;7.28;;;0.40;99.90;;;;;;4990600;28;20405;-79
2021/05/08 04:03:05;;;;;;;7.47;6.72;;;0.40;99.90;;;;;;4990366;28;20057;-79
2021/05/08 04:05:32;;;;;;;9.70;6.60;;;0.50;99.90;;;;;;4992196;28;20480;-79
2021/05/08 04:07:59;;;;;;;8.00;6.47;;;0.50;99.90;;;;;;4981150;28;20049;-79
2021/05/08 04:10:27;;;;;;;8.85;7.78;;;0.40;99.90;;;;;;4997520;28;20051;-78
2021/05/08 04:12:54;;;;;;;7.43;6.72;;;0.40;99.90;;;;;;4992234;28;20054;-79
2021/05/08 04:15:22;;;;;;;11.48;6.70;;;0.40;99.90;;;;;;4991602;28;20039;-79
2021/05/08 04:17:49;;;;;;;6.85;6.15;;;0.50;99.90;;;;;;4992042;28;20491;-79
2021/05/08 04:20:17;;;;;;;6.18;5.65;;;0.30;99.90;;;;;;4991436;28;20045;-79
2021/05/08 04:22:44;;;;;;;7.57;6.28;;;0.30;99.90;;;;;;4991282;28;20053;-79
2021/05/08 04:25:12;;;;;;;6.97;6.38;;;0.30;99.90;;;;;;4992150;28;20058;-79
2021/05/08 04:27:40;;;;;;;8.63;7.82;;;0.40;99.90;;;;;;4990601;28;20042;-79
2021/05/08 04:30:08;;;;;;;5.97;5.43;;;0.60;99.90;;;;;;4991379;28;20053;-79
2021/05/08 04:32:35;;;;;;;4.90;4.32;;;0.70;99.90;;;;;;5003509;28;20053;-79
2021/05/08 04:35:03;;;;;;;7.22;6.30;;;0.80;99.90;;;;;;5010011;28;20045;-79
2021/05/08 04:37:31;;;;;;;8.48;7.63;;;0.80;99.90;;;;;;5011504;28;20053;-79
2021/05/08 04:39:58;;;;;;;7.63;6.05;;;0.80;99.90;;;;;;4993250;28;20038;-79
2021/05/08 04:42:26;;;;;;;9.80;8.95;;;0.80;99.90;;;;;;5009951;28;20068;-78
2021/05/08 04:44:53;;;;;;;8.77;7.82;;;0.90;99.90;;;;;;5011173;28;20054;-79
2021/05/08 04:47:21;;;;;;;9.63;8.25;;;1.20;99.90;;;;;;4992927;28;20052;-79
2021/05/08 04:49:51;;;;;;;9.48;8.48;;;1.20;99.90;;;;;;5010107;28;20081;-79
2021/05/08 04:52:19;;;;;;;9.85;8.00;;;1.60;99.90;;;;;;5010796;28;20054;-79
2021/05/08 04:54:46;;;;;;;10.75;8.82;;;1.90;99.90;;;;;;5010755;28;20514;-79
2021/05/08 04:57:15;;;;;;;8.52;7.75;;;2.40;99.90;;;;;;5005921;28;20054;-79
2021/05/08 04:59:42;;;;;;;9.43;7.65;;;2.90;99.90;;;;;;4990113;28;20042;-79
2021/05/08 05:02:10;;;;;;;8.40;7.07;;;3.20;99.90;;;;;;4999166;28;20053;-79
2021/05/08 05:04:37;;;;;;;8.55;7.50;;;3.70;99.90;;;;;;5010333;28;20517;-79
2021/05/08 05:07:05;;;;;;;7.50;6.72;;;4.00;99.90;;;;;;5010135;28;20042;-79
2021/05/08 05:09:33;;;;;;;6.80;6.20;;;4.30;99.90;;;;;;5010089;28;20057;-79
2021/05/08 05:12:01;;;;;;;5.90;5.35;;;4.50;99.90;;;;;;5008901;28;20045;-79
2021/05/08 05:14:29;;;;;;;5.63;5.13;;;4.40;99.90;;;;;;5010497;28;20053;-79
2021/05/08 05:16:57;;;;;;;6.80;5.93;;;4.20;99.90;;;;;;5010232;28;20077;-79
2021/05/08 05:19:24;;;;;;;6.22;5.63;;;4.20;99.90;;;;;;5010613;28;20049;-79
2021/05/08 05:21:52;;;;;;;6.97;6.28;;;4.30;99.90;;;;;;5023984;28;20537;-79
2021/05/08 05:24:19;;;;;;;5.68;4.68;;;4.70;99.90;;;;;;5029406;28;20041;-79
2021/05/08 05:26:46;;;;;;;5.88;5.38;;;5.30;99.90;;;;;;5012556;28;20034;-79
2021/05/08 05:29:14;;;;;;;6.20;5.57;;;5.60;99.90;;;;;;5012418;28;20053;-79
2021/05/08 05:31:41;;;;;;;5.10;4.60;;;5.90;99.90;;;;;;5029555;28;20053;-79
2021/05/08 05:34:13;;;;;;;6.43;4.30;;;6.20;99.80;;;;;;5010878;28;20399;-79
2021/05/08 05:36:41;;;;;;;4.70;4.30;;;6.60;98.70;;;;;;5009913;28;20419;-79
2021/05/08 05:39:08;;;;;;;5.07;4.57;;;6.80;99.20;;;;;;4996042;28;20069;-79
2021/05/08 05:41:36;;;;;;;5.28;4.35;;;6.90;99.00;;;;;;5014418;28;20069;-79
2021/05/08 05:44:05;;;;;;;5.30;4.80;;;7.10;98.50;;;;;;5013030;28;20049;-79
2021/05/08 05:46:33;;;;;;;13.00;7.13;;;7.50;96.40;;;;;;4995591;28;20054;-79
2021/05/08 05:49:00;;;;;;;5.10;4.70;;;7.50;97.60;;;;;;5013511;28;20125;-80
2021/05/08 05:51:28;;;;;;;5.05;3.78;;;7.80;97.10;;;;;;5013272;28;20042;-80
2021/05/08 05:53:56;;;;;;;3.78;3.47;;;7.90;95.50;;;;;;5014531;28;20057;-80
2021/05/08 05:56:28;;;;;;;4.78;4.38;;;8.20;94.80;;;;;;5012476;28;20050;-80
2021/05/08 05:58:55;;;;;;;;;;;8.30;95.00;;;;;;5014307;28;20041;-81
2021/05/08 06:01:22;;;;;;;5.22;4.80;;;8.50;94.80;;;;;;5012891;28;19925;-78
2021/05/08 06:03:50;;;;;;;7.18;5.80;;;8.70;94.90;;;;;;5013509;28;20400;-81
2021/05/08 06:06:18;;;;;;;4.60;3.88;;;8.70;94.70;;;;;;5013664;28;20062;-81
2021/05/08 06:08:46;;;;;;;4.38;3.97;;;9.10;93.00;;;;;;4995945;28;20041;-81
2021/05/08 06:11:13;;;;;;;5.10;3.80;;;9.10;93.00;;;;;;5013092;28;20046;-81
2021/05/08 06:13:40;;;;;;;3.90;3.60;;;9.60;92.40;;;;;;4996555;28;20057;-81
2021/05/08 06:16:08;;;;;;;3.47;3.22;;;10.00;91.90;;;;;;5013214;28;20061;-81
2021/05/08 06:18:36;;;;;;;4.88;3.67;;;10.20;91.80;;;;;;5013095;28;20067;-81
2021/05/08 06:21:07;;;;;;;;;;;10.20;91.00;;;;;;5003911;28;20053;-86
2021/05/08 06:23:34;;;;;;;3.13;2.92;;;10.30;91.80;;;;;;4979296;28;20263;-81
2021/05/08 06:26:02;;;;;;;4.03;3.20;;;11.40;89.40;;;;;;5013623;28;20060;-82
2021/05/08 06:28:29;;;;;;;3.45;3.15;;;12.00;87.00;;;;;;4995801;28;20046;-81
2021/05/08 06:30:57;;;;;;;3.38;3.08;;;12.30;83.60;;;;;;5012616;28;20046;-82
2021/05/08 06:33:24;;;;;;;4.20;2.63;;;12.20;86.20;;;;;;5008664;28;20061;-81
2021/05/08 06:35:52;;;;;;;2.85;2.65;;;12.00;85.60;;;;;;5009205;28;20041;-82
2021/05/08 06:38:20;;;;;;;3.72;3.05;;;11.80;87.90;;;;;;5009842;28;20365;-82
2021/05/08 06:40:48;;;;;;;3.13;2.83;;;11.80;85.90;;;;;;5010703;28;20045;-81
2021/05/08 06:43:16;;;;;;;4.15;3.33;;;12.50;85.00;;;;;;5011613;28;20042;-82
2021/05/08 06:45:43;;;;;;;2.75;2.55;;;13.00;78.60;;;;;;5011176;28;20046;-82
2021/05/08 06:48:11;;;;;;;3.58;3.10;;;13.40;79.40;;;;;;5011386;28;20491;-82
2021/05/08 06:50:38;;;;;;;5.93;3.50;;;13.30;78.70;;;;;;5009318;28;20509;-81
2021/05/08 06:53:05;;;;;;;3.20;3.00;;;13.50;78.80;;;;;;5012715;28;20475;-82
2021/05/08 06:55:33;;;;;;;2.95;2.45;;;14.00;73.20;;;;;;5012145;28;20530;-81
2021/05/08 06:58:01;;;;;;;2.63;2.42;;;14.00;75.70;;;;;;5007150;28;20058;-81
2021/05/08 07:00:28;;;;;;;3.92;2.78;;;14.30;74.40;;;;;;4991818;28;20073;-82
2021/05/08 07:02:55;;;;;;;2.88;2.67;;;14.60;74.10;;;;;;4993478;28;20395;-82
2021/05/08 07:05:23;;;;;;;4.15;3.75;;;14.80;72.90;;;;;;5011842;28;20061;-83
2021/05/08 07:08:00;;;;;;;3.45;3.10;;;14.90;70.00;;;;;;5011997;28;20053;-83
2021/05/08 07:10:28;;;;;;;5.13;3.47;;;15.60;70.60;;;;;;5009888;28;20046;-83
2021/05/08 07:12:55;;;;;;;4.10;3.67;;;16.40;68.10;;;;;;5012373;28;20050;-81
2021/05/08 07:15:23;;;;;;;5.28;3.80;;;17.40;63.50;;;;;;5011729;28;20395;-84
2021/05/08 07:18:07;;;;;;;4.45;4.05;;;16.70;65.20;;;;;;5010649;28;20050;-84
2021/05/08 07:20:37;;;;;;;3.53;3.05;;;17.80;61.40;;;;;;5010158;28;20406;-83
2021/05/08 07:23:05;;;;;;;5.97;3.67;;;18.00;61.40;;;;;;4978975;28;20034;-85
2021/05/08 07:25:37;;;;;;;3.50;2.67;;;18.40;58.90;;;;;;4982120;28;20061;-81
2021/05/08 07:28:23;;;;;;;3.88;3.58;;;19.10;53.70;;;;;;4975171;28;20060;-84
2021/05/08 07:30:54;;;;;;;3.55;3.22;;;19.10;54.70;;;;;;4992476;28;20050;-86
2021/05/08 07:33:23;;;;;;;5.43;3.55;;;19.50;54.40;;;;;;5000564;28;20411;-86
2021/05/08 07:35:51;;;;;;;4.55;2.53;;;21.00;49.70;;;;;;4983607;28;20045;-87
2021/05/08 07:38:20;;;;;;;3.55;3.25;;;21.00;48.20;;;;;;5004784;28;20546;-89
2021/05/08 07:40:51;;;;;;;5.45;2.53;;;21.20;48.20;;;;;;5014783;28;20057;-88
2021/05/08 07:43:24;;;;;;;3.22;2.90;;;20.90;47.60;;;;;;5001433;28;20049;-88
2021/05/08 07:45:51;;;;;;;3.83;3.10;;;21.60;45.80;;;;;;5002979;28;20050;-89
2021/05/08 07:48:19;;;;;;;2.40;2.20;;;21.60;45.80;;;;;;4984774;28;20047;-89
2021/05/08 07:50:47;;;;;;;3.33;2.10;;;22.20;41.90;;;;;;4963201;28;20049;-88
2021/05/08 07:53:20;;;;;;;3.10;2.22;;;22.20;43.90;;;;;;4985824;28;20050;-87
2021/05/08 07:55:50;;;;;;;4.47;2.90;;;22.50;45.00;;;;;;4980998;28;20456;-89
2021/05/08 07:58:24;;;;;;;2.55;2.35;;;22.90;44.60;;;;;;4984685;28;20058;-89
2021/05/08 08:00:55;;;;;;;2.72;2.42;;;22.60;40.00;;;;;;4978525;28;20046;-88
2021/05/08 08:03:23;;;;;;;2.67;2.45;;;23.10;41.00;;;;;;4982040;28;20046;-84
2021/05/08 08:05:57;;;;;;;4.93;2.45;;;22.60;41.30;;;;;;4980884;28;20675;-84
2021/05/08 08:08:28;;;;;;;2.78;2.58;;;21.60;43.30;;;;;;4981380;28;20050;-85
2021/05/08 08:10:57;;;;;;;2.78;2.58;;;21.70;41.40;;;;;;4981599;28;20043;-88
2021/05/08 08:13:27;;;;;;;3.90;3.30;;;21.30;41.90;;;;;;4981762;28;20046;-87
2021/05/08 08:15:54;;;;;;;3.80;2.80;;;21.20;46.50;;;;;;4979952;28;20519;-88
2021/05/08 08:18:29;;;;;;;2.83;2.47;;;22.00;41.90;;;;;;4981954;28;20447;-87
2021/05/08 08:20:59;;;;;;;2.75;2.55;;;22.00;41.50;;;;;;4946854;28;20526;-84
2021/05/08 08:23:26;;;;;;;2.75;2.28;;;21.10;44.70;;;;;;4964748;28;21350;-86
2021/05/08 08:25:54;;;;;;;2.67;2.47;;;23.10;40.20;;;;;;4983141;28;20046;-84
2021/05/08 08:28:21;;;;;;;2.88;2.63;;;24.80;38.00;;;;;;4983148;28;20058;-88
2021/05/08 08:30:50;;;;;;;3.17;2.13;;;25.50;36.50;;;;;;4980890;28;20042;-86
2021/05/08 08:33:18;;;;;;;2.58;2.22;;;26.10;32.00;;;;;;4980547;28;20043;-86
2021/05/08 08:35:47;;;;;;;5.13;2.95;;;23.40;38.10;;;;;;4980925;28;20049;-86
2021/05/08 08:38:15;;;;;;;3.63;2.63;;;20.50;44.50;;;;;;4981784;28;20061;-86
2021/05/08 08:40:44;;;;;;;2.05;1.85;;;19.10;45.20;;;;;;4964857;28;20035;-85
2021/05/08 08:43:13;;;;;;;2.75;2.42;;;18.10;49.30;;;;;;4947341;28;20054;-89
2021/05/08 08:45:44;;;;;;;2.70;2.22;;;17.10;51.00;;;;;;4981167;28;20047;-88
2021/05/08 08:48:15;;;;;;;2.55;2.35;;;16.90;52.60;;;;;;4970501;28;20042;-86
2021/05/08 08:50:47;;;;;;;2.55;2.38;;;16.70;55.10;;;;;;4950634;28;20050;-86
2021/05/08 08:53:15;;;;;;;4.05;2.22;;;16.00;57.70;;;;;;4966686;28;20042;-86
2021/05/08 08:55:58;;;;;;;2.20;1.92;;;15.70;57.80;;;;;;4963184;28;20049;-82
2021/05/08 08:58:39;;;;;;;3.25;2.00;;;15.20;58.50;;;;;;4949995;28;20046;-88
2021/05/08 09:01:06;;;;;;;2.75;2.55;;;15.00;58.60;;;;;;4982226;28;20579;-86
2021/05/08 09:03:34;;;;;;;4.50;2.35;;;15.00;59.80;;;;;;4981627;28;20045;-84
2021/05/08 09:06:02;;;;;;;1.70;1.60;;;14.60;55.40;;;;;;4979925;28;20050;-88
2021/05/08 09:08:35;;;;;;;1.77;1.48;;;14.20;50.10;;;;;;4967938;28;20129;-85
2021/05/08 09:11:21;;;;;;;3.75;1.85;;;13.50;58.10;;;;;;4963572;28;20045;-86
2021/05/08 09:14:34;;;;;;;2.90;2.47;;;13.30;68.10;;;;;;5009496;28;20062;-88
2021/05/08 09:17:13;;;;;;;2.47;1.95;;;12.80;65.00;;;;;;4955246;28;20388;-88
2021/05/08 09:19:48;;;;;;;2.85;2.08;;;13.30;66.30;;;;;;4953958;28;20058;-79
2021/05/08 09:22:26;;;;;;;2.55;2.35;;;13.50;60.90;;;;;;4952857;28;20059;-80
2021/05/08 09:24:59;;;;;;;3.13;2.20;;;13.70;60.10;;;;;;4933295;29;20043;-80
2021/05/08 09:27:42;;;;;;;1.90;1.80;;;14.00;62.80;;;;;;4933227;29;20066;-83
2021/05/08 09:30:14;;;;;;;4.22;2.58;;;14.10;63.60;;;;;;4933319;29;20055;-81
2021/05/08 09:33:06;;;;;;;3.50;2.58;;;14.00;58.60;;;;;;5076031;28;20960;-80
2021/05/08 09:35:35;;;;;;;4.38;1.70;;;13.80;60.80;;;;;;5055600;28;20045;-80
2021/05/08 09:38:15;;;;;;;1.88;1.40;;;14.10;63.80;;;;;;5046812;28;20402;-79
2021/05/08 09:40:48;;;;;;;2.63;2.33;;;14.20;58.40;;;;;;5009151;28;20518;-81
2021/05/08 09:43:17;;;;;;;2.22;2.00;;;14.10;56.00;;;;;;5009404;28;20060;-81
2021/05/08 09:45:51;;;;;;;2.08;1.85;;;13.80;61.10;;;;;;5014332;28;20403;-81
2021/05/08 09:48:33;;;;;;;2.80;2.00;;;13.80;58.30;;;;;;5006472;28;20061;-82
2021/05/08 09:51:28;;;;;;;3.20;2.90;;;13.80;59.20;;;;;;4997524;28;20053;-82
2021/05/08 09:54:02;;;;;;;2.30;2.10;;;13.30;60.50;;;;;;5010794;28;20064;-82
2021/05/08 09:56:40;;;;;;;2.28;2.08;;;13.50;58.50;;;;;;5026978;28;20049;-81
2021/05/08 09:59:37;;;;;;;2.30;2.15;;;13.70;61.00;;;;;;5015407;28;20042;-81
2021/05/08 10:02:05;;;;;;;2.03;1.83;;;13.90;60.50;;;;;;5029056;28;20068;-81
2021/05/08 10:04:45;;;;;;;6.97;2.53;;;14.00;64.60;;;;;;5046503;28;20045;-81
2021/05/08 10:07:14;;;;;;;2.58;2.20;;;13.90;58.10;;;;;;5045580;28;20379;-82
2021/05/08 10:09:46;;;;;;;6.78;2.70;;;14.00;64.90;;;;;;5048152;28;20053;-82
2021/05/08 10:12:33;;;;;;;2.53;2.15;;;13.20;65.80;;;;;;5048880;28;20056;-81
2021/05/08 10:15:00;;;;;;;4.10;2.17;;;13.30;69.80;;;;;;5029232;28;20046;-80
2021/05/08 10:17:29;;;;;;;5.95;3.05;;;13.90;65.20;;;;;;5009548;28;20054;-82
2021/05/08 10:20:05;;;;;;;2.85;2.63;;;14.30;77.10;;;;;;5024882;28;20041;-80
2021/05/08 10:22:55;;;;;;;2.45;2.10;;;14.10;62.80;;;;;;5026399;28;20069;-83
2021/05/08 10:25:24;;;;;;;5.43;3.58;;;14.00;68.30;;;;;;5009726;28;20049;-81
2021/05/08 10:27:51;;;;;;;3.42;2.40;;;14.00;62.20;;;;;;5036926;28;20037;-81
2021/05/08 10:30:22;;;;;;;2.58;2.00;;;14.30;66.20;;;;;;5045392;28;20056;-84
2021/05/08 10:32:50;;;;;;;5.68;2.58;;;13.90;68.50;;;;;;5011593;28;20049;-82
2021/05/08 10:35:36;;;;;;;1.60;1.50;;;14.00;64.90;;;;;;5044077;28;20052;-82
2021/05/08 10:38:08;;;;;;;3.40;2.40;;;14.00;61.30;;;;;;5029056;28;20053;-78
2021/05/08 10:40:53;;;;;;;2.88;2.67;;;13.90;62.10;;;;;;5026592;28;20045;-81
2021/05/08 10:43:49;;;;;;;3.53;2.20;;;13.70;58.70;;;;;;5018395;28;20037;-80
2021/05/08 10:46:18;;;;;;;2.47;2.28;;;12.90;62.00;;;;;;5013320;28;20054;-81
2021/05/08 10:49:17;;;;;;;3.50;2.15;;;13.00;63.70;;;;;;5011504;28;20049;-82
2021/05/08 10:51:56;;;;;;;3.08;1.88;;;13.60;67.00;;;;;;5011513;28;20503;-82
2021/05/08 10:54:45;;;;;;;2.35;1.88;;;14.10;66.70;;;;;;5012272;28;20125;-82
2021/05/08 10:57:26;;;;;;;2.30;2.03;;;14.10;62.40;;;;;;4981782;28;20046;-82
2021/05/08 11:00:05;;;;;;;3.63;2.30;;;13.90;63.30;;;;;;5025286;28;20052;-83
2021/05/08 11:02:41;;;;;;;2.47;2.28;;;13.70;62.30;;;;;;5031429;28;20406;-82
2021/05/08 11:05:31;;;;;;;2.33;2.13;;;13.80;70.80;;;;;;5031711;28;20439;-83
2021/05/08 11:07:59;;;;;;;5.10;2.65;;;14.10;65.80;;;;;;5031467;28;20498;-82
2021/05/08 11:10:32;;;;;;;2.20;2.00;;;14.40;67.70;;;;;;5032315;28;20414;-81
2021/05/08 11:13:14;;;;;;;3.00;2.17;;;14.50;67.60;;;;;;5032028;28;20053;-82
2021/05/08 11:15:58;;;;;;;2.30;2.10;;;14.50;76.40;;;;;;5032577;28;20053;-82
2021/05/08 11:18:32;;;;;;;2.15;1.95;;;14.80;68.90;;;;;;5031098;28;20049;-81
2021/05/08 11:21:02;;;;;;;1.92;1.83;;;14.80;61.50;;;;;;5014111;28;20049;-81
2021/05/08 11:23:46;;;;;;;4.63;2.40;;;14.70;69.20;;;;;;5047631;28;20044;-81
2021/05/08 11:26:25;;;;;;;2.03;1.85;;;14.70;72.60;;;;;;5015269;28;20054;-81
2021/05/08 11:28:56;;;;;;;2.30;2.10;;;15.00;63.70;;;;;;5030735;28;20487;-81
2021/05/08 11:31:38;;;;;;;2.83;1.85;;;15.10;62.90;;;;;;5029631;28;20069;-81
2021/05/08 11:34:18;;;;;;;3.60;2.58;;;15.10;73.20;;;;;;5013633;28;20763;-82
2021/05/08 11:36:46;;;;;;;2.40;2.10;;;15.10;68.00;;;;;;5030489;28;20052;-82
2021/05/08 11:39:18;;;;;;;2.88;2.55;;;14.80;62.00;;;;;;5024360;28;20046;-83
2021/05/08 11:41:49;;;;;;;5.00;2.00;;;14.70;69.40;;;;;;5011962;28;20057;-82
2021/05/08 11:44:29;;;;;;;5.63;1.60;;;14.70;67.00;;;;;;5012162;28;20058;-83
2021/05/08 11:47:03;;;;;;;4.57;2.50;;;15.00;72.20;;;;;;5017434;28;20529;-83
2021/05/08 11:49:36;;;;;;;3.13;1.70;;;15.30;71.40;;;;;;5012872;28;20061;-83
2021/05/08 11:52:06;;;;;;;1.70;1.60;;;15.40;68.50;;;;;;5009361;28;20050;-83
2021/05/08 11:54:43;;;;;;;4.72;3.20;;;15.20;68.50;;;;;;5011154;28;20053;-82
2021/05/08 11:57:20;;;;;;;3.22;1.67;;;15.20;60.00;;;;;;5032299;28;20406;-82
2021/05/08 11:59:48;;;;;;;4.90;2.00;;;15.10;80.10;;;;;;5030465;28;20140;-82
2021/05/08 12:02:18;;;;;;;2.38;2.17;;;15.20;69.60;;;;;;5031472;28;20065;-82
2021/05/08 12:04:48;;;;;;;2.10;1.75;;;15.00;60.80;;;;;;5031533;28;20053;-82
2021/05/08 12:07:27;;;;;;;3.42;1.85;;;15.00;65.90;;;;;;5031405;28;20053;-83
2021/05/08 12:10:20;;;;;;;1.75;1.48;;;15.20;63.70;;;;;;5030242;28;20062;-77
2021/05/08 12:12:47;;;;;;;;;;;15.20;61.70;;;;;;5030684;28;20049;-82
2021/05/08 12:15:26;;;;;;;2.85;2.00;;;15.10;58.50;;;;;;5062960;28;19921;-82
2021/05/08 12:18:04;;;;;;;2.83;1.73;;;15.20;69.50;;;;;;5030219;28;20049;-82
2021/05/08 12:20:35;;;;;;;2.38;1.85;;;15.10;65.10;;;;;;5030195;28;20403;-82
2021/05/08 12:23:09;;;;;;;1.55;1.38;;;15.20;63.90;;;;;;5031373;28;20494;-82
2021/05/08 12:25:37;;;;;;;2.55;2.33;;;15.40;64.70;;;;;;5032075;28;20054;-82
2021/05/08 12:28:18;;;;;;;2.17;2.00;;;15.80;63.10;;;;;;5062190;28;20045;-82
2021/05/08 12:30:48;;;;;;;1.63;1.52;;;15.80;72.90;;;;;;5030256;28;20045;-81
2021/05/08 12:33:24;;;;;;;3.47;1.98;;;16.00;60.00;;;;;;5029952;28;20053;-82
2021/05/08 12:35:55;;;;;;;3.30;2.03;;;16.10;60.20;;;;;;5030873;28;20483;-81
2021/05/08 12:38:29;;;;;;;1.73;1.30;;;16.10;59.00;;;;;;4997913;28;20529;-82
2021/05/08 12:40:57;;;;;;;2.22;1.58;;;16.00;59.70;;;;;;5029064;28;20041;-82
2021/05/08 12:43:25;;;;;;;3.42;1.67;;;15.90;64.00;;;;;;5013251;28;20040;-82
2021/05/08 12:46:07;;;;;;;1.52;1.42;;;15.90;65.10;;;;;;5031340;28;20057;-82
2021/05/08 12:48:45;;;;;;;2.53;2.28;;;16.00;62.50;;;;;;5013136;28;20053;-81
2021/05/08 12:51:33;;;;;;;1.45;1.05;;;16.20;60.60;;;;;;5010517;28;20037;-81
2021/05/08 12:54:31;;;;;;;2.08;1.73;;;16.50;59.70;;;;;;5030050;28;20052;-82
2021/05/08 12:57:13;;;;;;;1.40;1.30;;;16.60;58.90;;;;;;5011964;28;20535;-82
2021/05/08 12:59:40;;;;;;;2.08;1.40;;;16.40;70.30;;;;;;5028576;28;20399;-82
2021/05/08 13:02:14;;;;;;;1.20;0.98;;;16.60;61.60;;;;;;5030669;28;20053;-83
2021/05/08 13:04:44;;;;;;;1.33;1.13;;;16.80;58.60;;;;;;5013384;28;20049;-83
2021/05/08 13:07:22;;;;;;;5.35;1.42;;;16.30;56.90;;;;;;5012827;28;20048;-81
2021/05/08 13:10:22;;;;;;;1.42;0.98;;;16.00;60.80;;;;;;5001173;28;20058;-81
2021/05/08 13:12:56;;;;;;;1.63;1.50;;;16.00;55.60;;;;;;5029758;28;20045;-82
2021/05/08 13:15:31;;;;;;;1.05;1.00;;;15.90;53.50;;;;;;5013443;28;20044;-82
2021/05/08 13:17:59;;;;;;;2.58;0.90;;;16.00;67.60;;;;;;5029791;28;20053;-82
2021/05/08 13:20:35;;;;;;;1.08;1.00;;;16.10;60.60;;;;;;5014011;28;20053;-79
2021/05/08 13:23:11;;;;;;;1.65;1.55;;;16.50;62.80;;;;;;5030211;28;20037;-77
2021/05/08 13:25:38;;;;;;;3.00;1.40;;;16.70;59.70;;;;;;5030919;28;20045;-78